East Blacksea — T2ZH3 — position and weather

sailwx.info

Track history (hours):
 
Tides and Currents Weather Stations Pressure Air Temp Water Temp Dewpoint Dewpoint Depression Visibility Wind Speed Wind Dir Waves Ship Positions

East Blacksea

Last reported at 2015-May-29 12:33 UTC. Time now 2015-May-30 18:42 UTC.
Position N 37°01' E 003°59'.

Length 69 m; draft 4.2 m.

Type: Cargo ship. MMSI: 572341210.

Date/timePositionNaut miles runAvg speedWind from/ knotsBaromVisibWave heightAir tempDewpointWater temp
2015-May-29 12:33N 37°01' E 003°59'10 7.1
2015-May-29 11:09N 36°59' E 003°47'30 4.5
2015-May-29 04:31N 36°47' E 003°13'110 2.4
2015-May-27 06:03N 36°34' E 000°57'4 7.6
2015-May-27 05:33N 36°33' E 000°52'9 7.7
2015-May-27 04:21N 36°30' E 000°41'39 7.5
2015-May-26 23:08N 36°15' W 000°03'30 8.3
2015-May-26 19:31N 36°06' W 000°38'224 7.4
2015-May-25 13:21N 35°56' W 005°15'3 4.0
2015-May-25 12:33N 35°54' W 005°18'0 0.0
2015-May-25 11:33N 35°54' W 005°18'0 0.0
2015-May-25 10:33N 35°54' W 005°18'0 0.0
2015-May-25 09:33N 35°54' W 005°18'0 0.0
2015-May-25 08:33N 35°54' W 005°18'0 0.0
2015-May-25 07:33N 35°54' W 005°18'5 5.3
2015-May-25 06:33N 35°57' W 005°24'177 6.2
2015-May-24 02:06N 36°30' W 008°59'7 6.8
2015-May-24 01:04N 36°32' W 009°07'4 6.8
2015-May-24 00:31N 36°34' W 009°12'8 6.7
2015-May-23 23:17N 36°38' W 009°20'8 7.0
2015-May-23 22:12N 36°44' W 009°27'4 6.8
2015-May-23 21:33N 36°47' W 009°30'7 6.8
2015-May-23 20:31N 36°53' W 009°33'7 6.9
2015-May-23 19:33N 36°60' W 009°36'7 6.9
2015-May-23 18:33N 37°07' W 009°38'7 7.0
2015-May-23 17:33N 37°14' W 009°39'7 7.1
2015-May-23 16:33N 37°21' W 009°41'7 7.1
2015-May-23 15:33N 37°27' W 009°44'7 7.1
2015-May-23 14:33N 37°34' W 009°46'7 7.1
2015-May-23 13:34N 37°41' W 009°48'8 7.6
2015-May-23 12:33N 37°48' W 009°50'8 7.8
2015-May-23 11:33N 37°56' W 009°52'8 7.7
2015-May-23 10:33N 38°04' W 009°54'7 7.3
2015-May-23 09:33N 38°11' W 009°56'8 7.5
2015-May-23 08:33N 38°18' W 009°58'7 7.2
2015-May-23 07:33N 38°25' W 010°00'7 7.3
2015-May-23 06:34N 38°32' W 010°02'8 7.4
2015-May-23 05:31N 38°40' W 010°04'7 7.2
2015-May-23 04:33N 38°47' W 010°05'7 6.9
2015-May-23 03:33N 38°54' W 010°04'7 6.7
2015-May-23 02:33N 38°60' W 010°01'7 7.1
2015-May-23 01:33N 39°07' W 009°58'7 7.1
2015-May-23 00:32N 39°13' W 009°55'30 7.1
2015-May-22 20:21N 39°41' W 009°39'6 7.5
2015-May-22 19:33N 39°46' W 009°36'15 7.4
2015-May-22 17:33N 40°01' W 009°31'15 7.5
2015-May-22 15:32N 40°15' W 009°25'8 7.6
2015-May-22 14:32N 40°23' W 009°23'8 8.0
2015-May-22 13:31N 40°30' W 009°20'  
Track history (hours):
 
Tides and Currents Weather Stations Pressure Air Temp Water Temp Dewpoint Dewpoint Depression Visibility Wind Speed Wind Dir Waves Ship Positions

East Blacksea

Last reported at 2015-May-29 12:33 UTC. Time now 2015-May-30 18:42 UTC.
Position N 37°01' E 003°59'.

Length 69 m; draft 4.2 m.

Type: Cargo ship. MMSI: 572341210.

Date/timePositionNaut miles runAvg speedWind from/ knotsBaromVisibWave heightAir tempDewpointWater temp
2015-May-29 12:33N 37°01' E 003°59'10 7.1
2015-May-29 11:09N 36°59' E 003°47'30 4.5
2015-May-29 04:31N 36°47' E 003°13'110 2.4
2015-May-27 06:03N 36°34' E 000°57'4 7.6
2015-May-27 05:33N 36°33' E 000°52'9 7.7
2015-May-27 04:21N 36°30' E 000°41'39 7.5
2015-May-26 23:08N 36°15' W 000°03'30 8.3
2015-May-26 19:31N 36°06' W 000°38'224 7.4
2015-May-25 13:21N 35°56' W 005°15'3 4.0
2015-May-25 12:33N 35°54' W 005°18'0 0.0
2015-May-25 11:33N 35°54' W 005°18'0 0.0
2015-May-25 10:33N 35°54' W 005°18'0 0.0
2015-May-25 09:33N 35°54' W 005°18'0 0.0
2015-May-25 08:33N 35°54' W 005°18'0 0.0
2015-May-25 07:33N 35°54' W 005°18'5 5.3
2015-May-25 06:33N 35°57' W 005°24'177 6.2
2015-May-24 02:06N 36°30' W 008°59'7 6.8
2015-May-24 01:04N 36°32' W 009°07'4 6.8
2015-May-24 00:31N 36°34' W 009°12'8 6.7
2015-May-23 23:17N 36°38' W 009°20'8 7.0
2015-May-23 22:12N 36°44' W 009°27'4 6.8
2015-May-23 21:33N 36°47' W 009°30'7 6.8
2015-May-23 20:31N 36°53' W 009°33'7 6.9
2015-May-23 19:33N 36°60' W 009°36'7 6.9
2015-May-23 18:33N 37°07' W 009°38'7 7.0
2015-May-23 17:33N 37°14' W 009°39'7 7.1
2015-May-23 16:33N 37°21' W 009°41'7 7.1
2015-May-23 15:33N 37°27' W 009°44'7 7.1
2015-May-23 14:33N 37°34' W 009°46'7 7.1
2015-May-23 13:34N 37°41' W 009°48'8 7.6
2015-May-23 12:33N 37°48' W 009°50'8 7.8
2015-May-23 11:33N 37°56' W 009°52'8 7.7
2015-May-23 10:33N 38°04' W 009°54'7 7.3
2015-May-23 09:33N 38°11' W 009°56'8 7.5
2015-May-23 08:33N 38°18' W 009°58'7 7.2
2015-May-23 07:33N 38°25' W 010°00'7 7.3
2015-May-23 06:34N 38°32' W 010°02'8 7.4
2015-May-23 05:31N 38°40' W 010°04'7 7.2
2015-May-23 04:33N 38°47' W 010°05'7 6.9
2015-May-23 03:33N 38°54' W 010°04'7 6.7
2015-May-23 02:33N 38°60' W 010°01'7 7.1
2015-May-23 01:33N 39°07' W 009°58'7 7.1
2015-May-23 00:32N 39°13' W 009°55'30 7.1
2015-May-22 20:21N 39°41' W 009°39'6 7.5
2015-May-22 19:33N 39°46' W 009°36'15 7.4
2015-May-22 17:33N 40°01' W 009°31'15 7.5
2015-May-22 15:32N 40°15' W 009°25'8 7.6
2015-May-22 14:32N 40°23' W 009°23'8 8.0
2015-May-22 13:31N 40°30' W 009°20'  

Dump ship's entire track history